sensor_id;sensor_type;location;lat;lon;timestamp;temperature;humidity
71396;DHT22;59888;55.814;37.132;2023-04-26T00:02:12;14.80;43.90
71396;DHT22;59888;55.814;37.132;2023-04-26T00:04:39;14.73;44.51
71396;DHT22;59888;55.814;37.132;2023-04-26T00:07:05;14.68;44.86
71396;DHT22;59888;55.814;37.132;2023-04-26T00:09:32;14.66;44.78
71396;DHT22;59888;55.814;37.132;2023-04-26T00:11:58;14.62;44.72
71396;DHT22;59888;55.814;37.132;2023-04-26T00:14:24;14.57;44.81
71396;DHT22;59888;55.814;37.132;2023-04-26T00:16:50;14.56;45.33
71396;DHT22;59888;55.814;37.132;2023-04-26T00:19:16;14.54;44.83
71396;DHT22;59888;55.814;37.132;2023-04-26T00:21:43;14.49;45.12
71396;DHT22;59888;55.814;37.132;2023-04-26T00:24:09;14.44;46.08
71396;DHT22;59888;55.814;37.132;2023-04-26T00:26:35;14.41;46.18
71396;DHT22;59888;55.814;37.132;2023-04-26T00:29:03;14.35;46.13
71396;DHT22;59888;55.814;37.132;2023-04-26T00:31:29;14.27;46.51
71396;DHT22;59888;55.814;37.132;2023-04-26T00:33:55;14.21;46.35
71396;DHT22;59888;55.814;37.132;2023-04-26T00:36:22;14.14;47.28
71396;DHT22;59888;55.814;37.132;2023-04-26T00:38:48;14.09;48.31
71396;DHT22;59888;55.814;37.132;2023-04-26T00:41:14;14.01;47.35
71396;DHT22;59888;55.814;37.132;2023-04-26T00:43:40;13.99;48.82
71396;DHT22;59888;55.814;37.132;2023-04-26T00:46:08;13.93;48.21
71396;DHT22;59888;55.814;37.132;2023-04-26T00:48:36;13.89;48.23
71396;DHT22;59888;55.814;37.132;2023-04-26T00:51:02;13.85;48.54
71396;DHT22;59888;55.814;37.132;2023-04-26T00:53:30;13.85;47.97
71396;DHT22;59888;55.814;37.132;2023-04-26T00:55:57;13.79;51.11
71396;DHT22;59888;55.814;37.132;2023-04-26T00:58:24;13.75;47.86
71396;DHT22;59888;55.814;37.132;2023-04-26T01:00:51;13.69;49.04
71396;DHT22;59888;55.814;37.132;2023-04-26T01:03:17;13.64;50.11
71396;DHT22;59888;55.814;37.132;2023-04-26T01:05:44;13.58;48.97
71396;DHT22;59888;55.814;37.132;2023-04-26T01:08:10;13.54;48.47
71396;DHT22;59888;55.814;37.132;2023-04-26T01:10:38;13.51;50.21
71396;DHT22;59888;55.814;37.132;2023-04-26T01:13:04;13.47;50.36
71396;DHT22;59888;55.814;37.132;2023-04-26T01:15:30;13.46;50.82
71396;DHT22;59888;55.814;37.132;2023-04-26T01:17:58;13.41;50.08
71396;DHT22;59888;55.814;37.132;2023-04-26T01:20:25;13.41;52.93
71396;DHT22;59888;55.814;37.132;2023-04-26T01:22:51;13.36;50.83
71396;DHT22;59888;55.814;37.132;2023-04-26T01:25:18;13.35;50.73
71396;DHT22;59888;55.814;37.132;2023-04-26T01:27:45;13.32;52.39
71396;DHT22;59888;55.814;37.132;2023-04-26T01:30:11;13.27;51.43
71396;DHT22;59888;55.814;37.132;2023-04-26T01:32:37;13.25;49.97
71396;DHT22;59888;55.814;37.132;2023-04-26T01:35:04;13.21;51.24
71396;DHT22;59888;55.814;37.132;2023-04-26T01:37:31;13.19;51.17
71396;DHT22;59888;55.814;37.132;2023-04-26T01:39:59;13.16;51.53
71396;DHT22;59888;55.814;37.132;2023-04-26T01:42:25;13.16;52.06
71396;DHT22;59888;55.814;37.132;2023-04-26T01:44:51;13.14;51.43
71396;DHT22;59888;55.814;37.132;2023-04-26T01:47:17;13.14;51.35
71396;DHT22;59888;55.814;37.132;2023-04-26T01:49:44;13.09;51.75
71396;DHT22;59888;55.814;37.132;2023-04-26T01:52:13;13.02;51.99
71396;DHT22;59888;55.814;37.132;2023-04-26T01:54:39;13.02;52.26
71396;DHT22;59888;55.814;37.132;2023-04-26T01:57:05;13.01;51.80
71396;DHT22;59888;55.814;37.132;2023-04-26T01:59:31;13.00;52.62
71396;DHT22;59888;55.814;37.132;2023-04-26T02:01:58;12.96;53.17
71396;DHT22;59888;55.814;37.132;2023-04-26T02:04:25;12.95;52.10
71396;DHT22;59888;55.814;37.132;2023-04-26T02:06:51;12.97;51.93
71396;DHT22;59888;55.814;37.132;2023-04-26T02:09:17;12.91;54.68
71396;DHT22;59888;55.814;37.132;2023-04-26T02:11:43;12.87;53.06
71396;DHT22;59888;55.814;37.132;2023-04-26T02:14:09;12.80;54.49
71396;DHT22;59888;55.814;37.132;2023-04-26T02:16:35;12.80;54.15
71396;DHT22;59888;55.814;37.132;2023-04-26T02:19:03;12.78;54.26
71396;DHT22;59888;55.814;37.132;2023-04-26T02:21:30;12.79;54.08
71396;DHT22;59888;55.814;37.132;2023-04-26T02:24:21;12.76;54.19
71396;DHT22;59888;55.814;37.132;2023-04-26T02:26:48;12.76;54.73
71396;DHT22;59888;55.814;37.132;2023-04-26T02:29:14;12.74;54.78
71396;DHT22;59888;55.814;37.132;2023-04-26T02:31:39;12.75;55.27
71396;DHT22;59888;55.814;37.132;2023-04-26T02:34:06;12.74;55.26
71396;DHT22;59888;55.814;37.132;2023-04-26T02:36:32;12.73;54.83
71396;DHT22;59888;55.814;37.132;2023-04-26T02:38:58;12.71;55.19
71396;DHT22;59888;55.814;37.132;2023-04-26T02:41:25;12.72;55.67
71396;DHT22;59888;55.814;37.132;2023-04-26T02:43:51;12.70;55.22
71396;DHT22;59888;55.814;37.132;2023-04-26T02:46:17;12.71;55.34
71396;DHT22;59888;55.814;37.132;2023-04-26T02:48:43;12.71;55.47
71396;DHT22;59888;55.814;37.132;2023-04-26T02:51:09;12.72;56.11
71396;DHT22;59888;55.814;37.132;2023-04-26T02:53:36;12.70;55.23
71396;DHT22;59888;55.814;37.132;2023-04-26T02:56:02;12.70;52.56
71396;DHT22;59888;55.814;37.132;2023-04-26T02:58:28;12.71;55.41
71396;DHT22;59888;55.814;37.132;2023-04-26T03:00:56;12.73;53.19
71396;DHT22;59888;55.814;37.132;2023-04-26T03:03:24;12.73;56.11
71396;DHT22;59888;55.814;37.132;2023-04-26T03:05:50;12.72;56.29
71396;DHT22;59888;55.814;37.132;2023-04-26T03:08:16;12.70;56.57
71396;DHT22;59888;55.814;37.132;2023-04-26T03:10:43;12.74;56.68
71396;DHT22;59888;55.814;37.132;2023-04-26T03:13:11;12.75;56.35
71396;DHT22;59888;55.814;37.132;2023-04-26T03:15:37;12.75;56.60
71396;DHT22;59888;55.814;37.132;2023-04-26T03:18:03;12.76;58.22
71396;DHT22;59888;55.814;37.132;2023-04-26T03:20:30;12.76;55.67
71396;DHT22;59888;55.814;37.132;2023-04-26T03:22:56;12.79;56.85
71396;DHT22;59888;55.814;37.132;2023-04-26T03:25:22;12.78;55.70
71396;DHT22;59888;55.814;37.132;2023-04-26T03:27:48;12.76;55.62
71396;DHT22;59888;55.814;37.132;2023-04-26T03:30:14;12.78;55.58
71396;DHT22;59888;55.814;37.132;2023-04-26T03:32:43;12.81;56.39
71396;DHT22;59888;55.814;37.132;2023-04-26T03:35:09;12.87;55.46
71396;DHT22;59888;55.814;37.132;2023-04-26T03:37:35;12.92;52.40
71396;DHT22;59888;55.814;37.132;2023-04-26T03:40:06;12.95;56.17
71396;DHT22;59888;55.814;37.132;2023-04-26T03:42:36;12.96;54.89
71396;DHT22;59888;55.814;37.132;2023-04-26T03:45:03;13.03;56.31
71396;DHT22;59888;55.814;37.132;2023-04-26T03:47:33;13.06;55.36
71396;DHT22;59888;55.814;37.132;2023-04-26T03:50:00;13.10;57.06
71396;DHT22;59888;55.814;37.132;2023-04-26T03:52:26;13.10;55.78
71396;DHT22;59888;55.814;37.132;2023-04-26T03:54:52;13.08;58.31
71396;DHT22;59888;55.814;37.132;2023-04-26T03:57:19;13.02;57.74
71396;DHT22;59888;55.814;37.132;2023-04-26T03:59:44;12.99;54.88
71396;DHT22;59888;55.814;37.132;2023-04-26T04:02:10;12.95;57.39
71396;DHT22;59888;55.814;37.132;2023-04-26T04:04:36;12.89;55.96
71396;DHT22;59888;55.814;37.132;2023-04-26T04:07:02;12.86;54.46
71396;DHT22;59888;55.814;37.132;2023-04-26T04:09:28;12.81;56.22
71396;DHT22;59888;55.814;37.132;2023-04-26T04:11:54;12.82;58.98
71396;DHT22;59888;55.814;37.132;2023-04-26T04:14:20;12.81;58.28
71396;DHT22;59888;55.814;37.132;2023-04-26T04:16:46;12.82;56.55
71396;DHT22;59888;55.814;37.132;2023-04-26T04:19:12;12.80;61.44
71396;DHT22;59888;55.814;37.132;2023-04-26T04:21:38;12.79;59.25
71396;DHT22;59888;55.814;37.132;2023-04-26T04:24:07;12.75;61.11
71396;DHT22;59888;55.814;37.132;2023-04-26T04:26:33;12.74;58.65
71396;DHT22;59888;55.814;37.132;2023-04-26T04:28:59;12.75;59.14
71396;DHT22;59888;55.814;37.132;2023-04-26T04:31:35;12.78;61.79
71396;DHT22;59888;55.814;37.132;2023-04-26T04:34:01;12.74;60.71
71396;DHT22;59888;55.814;37.132;2023-04-26T04:36:27;12.77;58.22
71396;DHT22;59888;55.814;37.132;2023-04-26T04:38:53;12.78;59.90
71396;DHT22;59888;55.814;37.132;2023-04-26T04:41:19;12.82;59.39
71396;DHT22;59888;55.814;37.132;2023-04-26T04:43:47;12.84;59.22
71396;DHT22;59888;55.814;37.132;2023-04-26T04:46:13;12.81;58.37
71396;DHT22;59888;55.814;37.132;2023-04-26T04:48:39;12.78;58.83
71396;DHT22;59888;55.814;37.132;2023-04-26T04:51:06;12.82;58.91
71396;DHT22;59888;55.814;37.132;2023-04-26T04:53:34;12.85;57.62
71396;DHT22;59888;55.814;37.132;2023-04-26T04:56:00;12.84;59.18
71396;DHT22;59888;55.814;37.132;2023-04-26T04:58:26;12.90;59.09
71396;DHT22;59888;55.814;37.132;2023-04-26T05:00:52;12.87;59.96
71396;DHT22;59888;55.814;37.132;2023-04-26T05:03:25;12.87;59.38
71396;DHT22;59888;55.814;37.132;2023-04-26T05:05:51;12.90;59.68
71396;DHT22;59888;55.814;37.132;2023-04-26T05:08:17;12.93;60.96
71396;DHT22;59888;55.814;37.132;2023-04-26T05:10:44;12.92;56.06
71396;DHT22;59888;55.814;37.132;2023-04-26T05:13:10;12.96;54.69
71396;DHT22;59888;55.814;37.132;2023-04-26T05:15:37;12.93;60.82
71396;DHT22;59888;55.814;37.132;2023-04-26T05:18:04;12.97;60.66
71396;DHT22;59888;55.814;37.132;2023-04-26T05:20:31;12.97;62.46
71396;DHT22;59888;55.814;37.132;2023-04-26T05:22:57;12.96;59.96
71396;DHT22;59888;55.814;37.132;2023-04-26T05:25:23;12.99;58.87
71396;DHT22;59888;55.814;37.132;2023-04-26T05:27:55;12.99;57.19
71396;DHT22;59888;55.814;37.132;2023-04-26T05:30:30;13.03;60.30
71396;DHT22;59888;55.814;37.132;2023-04-26T05:33:24;13.04;59.57
71396;DHT22;59888;55.814;37.132;2023-04-26T05:35:55;13.11;58.99
71396;DHT22;59888;55.814;37.132;2023-04-26T05:38:24;13.08;60.43
71396;DHT22;59888;55.814;37.132;2023-04-26T05:40:50;13.10;60.84
71396;DHT22;59888;55.814;37.132;2023-04-26T05:43:17;13.10;60.24
71396;DHT22;59888;55.814;37.132;2023-04-26T05:45:56;13.21;58.95
71396;DHT22;59888;55.814;37.132;2023-04-26T05:48:24;13.23;60.06
71396;DHT22;59888;55.814;37.132;2023-04-26T05:50:50;13.24;61.92
71396;DHT22;59888;55.814;37.132;2023-04-26T05:53:17;13.25;60.25
71396;DHT22;59888;55.814;37.132;2023-04-26T05:55:44;13.30;60.99
71396;DHT22;59888;55.814;37.132;2023-04-26T05:58:10;13.31;61.63
71396;DHT22;59888;55.814;37.132;2023-04-26T06:00:39;13.34;60.70
71396;DHT22;59888;55.814;37.132;2023-04-26T06:03:07;13.38;62.32
71396;DHT22;59888;55.814;37.132;2023-04-26T06:05:35;13.44;60.22
71396;DHT22;59888;55.814;37.132;2023-04-26T06:08:03;13.56;59.96
71396;DHT22;59888;55.814;37.132;2023-04-26T06:10:29;13.64;59.26
71396;DHT22;59888;55.814;37.132;2023-04-26T06:12:56;13.75;63.02
71396;DHT22;59888;55.814;37.132;2023-04-26T06:15:23;13.81;58.97
71396;DHT22;59888;55.814;37.132;2023-04-26T06:17:50;13.89;58.59
71396;DHT22;59888;55.814;37.132;2023-04-26T06:20:16;13.99;58.09
71396;DHT22;59888;55.814;37.132;2023-04-26T06:22:42;14.10;58.67
71396;DHT22;59888;55.814;37.132;2023-04-26T06:25:08;14.18;58.58
71396;DHT22;59888;55.814;37.132;2023-04-26T06:27:37;14.20;59.57
71396;DHT22;59888;55.814;37.132;2023-04-26T06:30:05;14.21;55.93
71396;DHT22;59888;55.814;37.132;2023-04-26T06:32:34;14.17;57.96
71396;DHT22;59888;55.814;37.132;2023-04-26T06:35:01;14.13;58.87
71396;DHT22;59888;55.814;37.132;2023-04-26T06:37:32;14.12;57.10
71396;DHT22;59888;55.814;37.132;2023-04-26T06:39:58;14.06;58.47
71396;DHT22;59888;55.814;37.132;2023-04-26T06:42:24;14.12;60.00
71396;DHT22;59888;55.814;37.132;2023-04-26T06:45:16;14.21;56.69
71396;DHT22;59888;55.814;37.132;2023-04-26T06:47:43;14.26;57.60
71396;DHT22;59888;55.814;37.132;2023-04-26T06:50:10;14.27;57.35
71396;DHT22;59888;55.814;37.132;2023-04-26T06:52:36;14.29;59.76
71396;DHT22;59888;55.814;37.132;2023-04-26T06:55:02;14.32;60.18
71396;DHT22;59888;55.814;37.132;2023-04-26T06:57:31;14.34;58.16
71396;DHT22;59888;55.814;37.132;2023-04-26T06:59:58;14.39;59.90
71396;DHT22;59888;55.814;37.132;2023-04-26T07:02:25;14.44;58.49
71396;DHT22;59888;55.814;37.132;2023-04-26T07:04:51;14.47;59.86
71396;DHT22;59888;55.814;37.132;2023-04-26T07:07:17;14.54;58.90
71396;DHT22;59888;55.814;37.132;2023-04-26T07:09:57;14.57;59.65
71396;DHT22;59888;55.814;37.132;2023-04-26T07:12:23;14.60;58.51
71396;DHT22;59888;55.814;37.132;2023-04-26T07:14:49;14.64;57.87
71396;DHT22;59888;55.814;37.132;2023-04-26T07:17:15;14.63;57.75
71396;DHT22;59888;55.814;37.132;2023-04-26T07:19:41;14.63;57.15
71396;DHT22;59888;55.814;37.132;2023-04-26T07:22:07;14.72;58.37
71396;DHT22;59888;55.814;37.132;2023-04-26T07:24:33;14.83;55.67
71396;DHT22;59888;55.814;37.132;2023-04-26T07:26:59;14.89;58.33
71396;DHT22;59888;55.814;37.132;2023-04-26T07:29:25;15.02;57.78
71396;DHT22;59888;55.814;37.132;2023-04-26T07:31:51;15.18;57.71
71396;DHT22;59888;55.814;37.132;2023-04-26T07:34:17;15.17;56.18
71396;DHT22;59888;55.814;37.132;2023-04-26T07:36:44;15.16;56.09
71396;DHT22;59888;55.814;37.132;2023-04-26T07:39:10;15.27;57.43
71396;DHT22;59888;55.814;37.132;2023-04-26T07:41:36;15.25;57.10
71396;DHT22;59888;55.814;37.132;2023-04-26T07:44:03;15.21;56.57
71396;DHT22;59888;55.814;37.132;2023-04-26T07:46:32;15.21;56.86
71396;DHT22;59888;55.814;37.132;2023-04-26T07:48:58;15.19;58.03
71396;DHT22;59888;55.814;37.132;2023-04-26T07:51:23;15.11;56.09
71396;DHT22;59888;55.814;37.132;2023-04-26T07:53:49;15.10;57.60
71396;DHT22;59888;55.814;37.132;2023-04-26T07:56:15;15.04;56.60
71396;DHT22;59888;55.814;37.132;2023-04-26T07:58:41;14.98;57.32
71396;DHT22;59888;55.814;37.132;2023-04-26T08:01:07;14.94;57.80
71396;DHT22;59888;55.814;37.132;2023-04-26T08:03:34;14.93;57.13
71396;DHT22;59888;55.814;37.132;2023-04-26T08:06:00;14.86;57.58
71396;DHT22;59888;55.814;37.132;2023-04-26T08:08:27;14.88;54.71
71396;DHT22;59888;55.814;37.132;2023-04-26T08:10:54;14.85;57.51
71396;DHT22;59888;55.814;37.132;2023-04-26T08:13:21;14.85;57.49
71396;DHT22;59888;55.814;37.132;2023-04-26T08:15:47;14.86;57.91
71396;DHT22;59888;55.814;37.132;2023-04-26T08:18:13;14.92;57.40
71396;DHT22;59888;55.814;37.132;2023-04-26T08:20:39;15.01;58.09
71396;DHT22;59888;55.814;37.132;2023-04-26T08:23:06;15.06;56.38
71396;DHT22;59888;55.814;37.132;2023-04-26T08:25:32;15.04;57.47
71396;DHT22;59888;55.814;37.132;2023-04-26T08:28:01;15.16;54.79
71396;DHT22;59888;55.814;37.132;2023-04-26T08:30:27;15.18;57.03
71396;DHT22;59888;55.814;37.132;2023-04-26T08:32:54;15.23;55.67
71396;DHT22;59888;55.814;37.132;2023-04-26T08:35:21;15.18;55.78
71396;DHT22;59888;55.814;37.132;2023-04-26T08:37:48;15.24;55.65
71396;DHT22;59888;55.814;37.132;2023-04-26T08:40:22;15.25;56.52
71396;DHT22;59888;55.814;37.132;2023-04-26T08:42:49;15.28;55.26
71396;DHT22;59888;55.814;37.132;2023-04-26T08:45:18;15.27;55.73
71396;DHT22;59888;55.814;37.132;2023-04-26T08:48:10;15.28;57.74
71396;DHT22;59888;55.814;37.132;2023-04-26T08:50:39;15.25;60.02
71396;DHT22;59888;55.814;37.132;2023-04-26T08:53:06;15.31;57.19
71396;DHT22;59888;55.814;37.132;2023-04-26T08:55:34;15.48;56.89
71396;DHT22;59888;55.814;37.132;2023-04-26T08:58:01;15.67;54.84
71396;DHT22;59888;55.814;37.132;2023-04-26T09:00:28;15.71;57.41
71396;DHT22;59888;55.814;37.132;2023-04-26T09:02:54;15.88;53.93
71396;DHT22;59888;55.814;37.132;2023-04-26T09:05:21;15.88;54.29
71396;DHT22;59888;55.814;37.132;2023-04-26T09:07:55;16.00;55.67
71396;DHT22;59888;55.814;37.132;2023-04-26T09:10:21;16.16;55.75
71396;DHT22;59888;55.814;37.132;2023-04-26T09:12:54;16.34;55.06
71396;DHT22;59888;55.814;37.132;2023-04-26T09:15:21;16.42;55.47
71396;DHT22;59888;55.814;37.132;2023-04-26T09:17:48;16.56;54.65
71396;DHT22;59888;55.814;37.132;2023-04-26T09:20:24;16.58;55.05
71396;DHT22;59888;55.814;37.132;2023-04-26T09:22:53;16.62;54.92
71396;DHT22;59888;55.814;37.132;2023-04-26T09:25:30;16.82;54.04
71396;DHT22;59888;55.814;37.132;2023-04-26T09:27:57;17.03;53.15
71396;DHT22;59888;55.814;37.132;2023-04-26T09:30:24;17.11;54.28
71396;DHT22;59888;55.814;37.132;2023-04-26T09:32:57;17.32;52.35
71396;DHT22;59888;55.814;37.132;2023-04-26T09:40:34;17.53;50.85
71396;DHT22;59888;55.814;37.132;2023-04-26T09:43:11;17.62;48.82
71396;DHT22;59888;55.814;37.132;2023-04-26T09:45:56;17.73;50.48
71396;DHT22;59888;55.814;37.132;2023-04-26T09:48:25;17.93;49.05
71396;DHT22;59888;55.814;37.132;2023-04-26T09:50:53;18.14;48.68
71396;DHT22;59888;55.814;37.132;2023-04-26T09:53:27;18.19;48.64
71396;DHT22;59888;55.814;37.132;2023-04-26T09:55:54;18.13;47.73
71396;DHT22;59888;55.814;37.132;2023-04-26T09:58:21;18.24;47.73
71396;DHT22;59888;55.814;37.132;2023-04-26T10:00:51;18.37;46.53
71396;DHT22;59888;55.814;37.132;2023-04-26T10:03:18;18.35;46.67
71396;DHT22;59888;55.814;37.132;2023-04-26T10:05:45;18.23;46.41
71396;DHT22;59888;55.814;37.132;2023-04-26T10:08:12;18.07;46.29
71396;DHT22;59888;55.814;37.132;2023-04-26T10:10:39;18.22;46.51
71396;DHT22;59888;55.814;37.132;2023-04-26T10:13:05;18.32;46.74
71396;DHT22;59888;55.814;37.132;2023-04-26T10:15:31;18.26;46.22
71396;DHT22;59888;55.814;37.132;2023-04-26T10:17:58;18.02;46.95
71396;DHT22;59888;55.814;37.132;2023-04-26T10:20:27;17.80;47.16
71396;DHT22;59888;55.814;37.132;2023-04-26T10:22:56;17.59;46.86
71396;DHT22;59888;55.814;37.132;2023-04-26T10:25:38;17.49;48.02
71396;DHT22;59888;55.814;37.132;2023-04-26T10:28:04;17.46;47.94
71396;DHT22;59888;55.814;37.132;2023-04-26T10:30:31;17.43;47.76
71396;DHT22;59888;55.814;37.132;2023-04-26T10:35:27;17.62;48.04
71396;DHT22;59888;55.814;37.132;2023-04-26T10:45:37;17.89;48.32
71396;DHT22;59888;55.814;37.132;2023-04-26T10:48:18;18.02;50.36
71396;DHT22;59888;55.814;37.132;2023-04-26T10:53:27;18.14;48.62
71396;DHT22;59888;55.814;37.132;2023-04-26T10:55:54;18.23;48.21
71396;DHT22;59888;55.814;37.132;2023-04-26T10:58:27;18.33;48.01
71396;DHT22;59888;55.814;37.132;2023-04-26T11:01:16;18.48;47.92
71396;DHT22;59888;55.814;37.132;2023-04-26T11:06:24;18.69;46.81
71396;DHT22;59888;55.814;37.132;2023-04-26T11:08:50;18.81;46.77
71396;DHT22;59888;55.814;37.132;2023-04-26T11:11:17;18.76;45.72
71396;DHT22;59888;55.814;37.132;2023-04-26T11:13:46;18.68;46.45
71396;DHT22;59888;55.814;37.132;2023-04-26T11:16:13;18.70;46.59
71396;DHT22;59888;55.814;37.132;2023-04-26T11:18:41;18.82;46.29
71396;DHT22;59888;55.814;37.132;2023-04-26T11:21:08;18.86;45.38
71396;DHT22;59888;55.814;37.132;2023-04-26T11:23:34;18.76;44.43
71396;DHT22;59888;55.814;37.132;2023-04-26T11:26:08;18.65;44.77
71396;DHT22;59888;55.814;37.132;2023-04-26T11:28:36;18.58;44.66
71396;DHT22;59888;55.814;37.132;2023-04-26T11:31:03;18.74;43.25
71396;DHT22;59888;55.814;37.132;2023-04-26T11:33:28;18.86;42.28
71396;DHT22;59888;55.814;37.132;2023-04-26T11:35:56;18.86;41.76
71396;DHT22;59888;55.814;37.132;2023-04-26T11:38:24;19.07;41.63
71396;DHT22;59888;55.814;37.132;2023-04-26T11:41:01;19.38;40.88
71396;DHT22;59888;55.814;37.132;2023-04-26T11:45:59;19.57;40.26
71396;DHT22;59888;55.814;37.132;2023-04-26T11:48:27;19.55;39.07
71396;DHT22;59888;55.814;37.132;2023-04-26T11:50:55;19.32;39.40
71396;DHT22;59888;55.814;37.132;2023-04-26T11:53:21;19.18;41.44
71396;DHT22;59888;55.814;37.132;2023-04-26T11:55:48;18.93;43.41
71396;DHT22;59888;55.814;37.132;2023-04-26T11:58:14;18.68;44.33
71396;DHT22;59888;55.814;37.132;2023-04-26T12:00:56;18.51;45.98
71396;DHT22;59888;55.814;37.132;2023-04-26T12:03:22;18.41;44.94
71396;DHT22;59888;55.814;37.132;2023-04-26T12:05:55;18.35;45.32
71396;DHT22;59888;55.814;37.132;2023-04-26T12:08:28;18.34;45.15
71396;DHT22;59888;55.814;37.132;2023-04-26T12:11:01;18.33;45.60
71396;DHT22;59888;55.814;37.132;2023-04-26T12:13:28;18.52;44.81
71396;DHT22;59888;55.814;37.132;2023-04-26T12:15:54;18.76;43.90
71396;DHT22;59888;55.814;37.132;2023-04-26T12:18:20;18.92;44.62
71396;DHT22;59888;55.814;37.132;2023-04-26T12:20:57;18.96;43.84
71396;DHT22;59888;55.814;37.132;2023-04-26T12:23:23;19.14;43.35
71396;DHT22;59888;55.814;37.132;2023-04-26T12:25:55;19.63;42.45
71396;DHT22;59888;55.814;37.132;2023-04-26T12:28:22;19.96;41.04
71396;DHT22;59888;55.814;37.132;2023-04-26T12:30:48;20.07;40.71
71396;DHT22;59888;55.814;37.132;2023-04-26T12:33:14;20.16;40.67
71396;DHT22;59888;55.814;37.132;2023-04-26T12:35:41;20.37;40.68
71396;DHT22;59888;55.814;37.132;2023-04-26T12:38:07;20.76;39.79
71396;DHT22;59888;55.814;37.132;2023-04-26T12:40:35;21.23;39.62
71396;DHT22;59888;55.814;37.132;2023-04-26T12:43:01;21.64;37.52
71396;DHT22;59888;55.814;37.132;2023-04-26T12:45:27;21.51;38.24
71396;DHT22;59888;55.814;37.132;2023-04-26T12:47:53;21.53;36.61
71396;DHT22;59888;55.814;37.132;2023-04-26T12:50:20;23.23;33.62
71396;DHT22;59888;55.814;37.132;2023-04-26T12:52:46;25.48;30.32
71396;DHT22;59888;55.814;37.132;2023-04-26T12:55:14;0.00;29.21
71396;DHT22;59888;55.814;37.132;2023-04-26T12:57:42;0.00;26.95
71396;DHT22;59888;55.814;37.132;2023-04-26T13:00:14;30.63;27.63
71396;DHT22;59888;55.814;37.132;2023-04-26T13:02:41;0.00;0.00
71396;DHT22;59888;55.814;37.132;2023-04-26T13:05:08;0.00;0.00
71396;DHT22;59888;55.814;37.132;2023-04-26T13:07:36;31.98;26.31
71396;DHT22;59888;55.814;37.132;2023-04-26T13:10:05;32.19;25.50
71396;DHT22;59888;55.814;37.132;2023-04-26T13:12:33;31.86;21.52
71396;DHT22;59888;55.814;37.132;2023-04-26T13:14:59;30.26;26.49
71396;DHT22;59888;55.814;37.132;2023-04-26T13:17:26;31.44;26.22
71396;DHT22;59888;55.814;37.132;2023-04-26T13:19:53;32.77;23.78
71396;DHT22;59888;55.814;37.132;2023-04-26T13:22:19;31.52;22.16
71396;DHT22;59888;55.814;37.132;2023-04-26T13:24:46;29.81;21.84
71396;DHT22;59888;55.814;37.132;2023-04-26T13:27:12;28.68;24.56
71396;DHT22;59888;55.814;37.132;2023-04-26T13:29:39;28.37;27.35
71396;DHT22;59888;55.814;37.132;2023-04-26T13:32:06;29.26;23.12
71396;DHT22;59888;55.814;37.132;2023-04-26T13:34:34;28.14;24.89
71396;DHT22;59888;55.814;37.132;2023-04-26T13:37:01;29.95;25.17
71396;DHT22;59888;55.814;37.132;2023-04-26T13:39:29;31.00;23.15
71396;DHT22;59888;55.814;37.132;2023-04-26T13:41:58;31.81;21.51
71396;DHT22;59888;55.814;37.132;2023-04-26T13:44:25;32.55;18.67
71396;DHT22;59888;55.814;37.132;2023-04-26T13:46:53;33.19;20.08
71396;DHT22;59888;55.814;37.132;2023-04-26T13:49:19;33.83;19.80
71396;DHT22;59888;55.814;37.132;2023-04-26T13:51:48;34.79;20.64
71396;DHT22;59888;55.814;37.132;2023-04-26T13:54:14;35.57;15.64
71396;DHT22;59888;55.814;37.132;2023-04-26T13:56:40;35.30;14.81
71396;DHT22;59888;55.814;37.132;2023-04-26T13:59:07;35.00;15.45
71396;DHT22;59888;55.814;37.132;2023-04-26T14:01:34;34.68;14.96
71396;DHT22;59888;55.814;37.132;2023-04-26T14:04:03;34.01;13.75
71396;DHT22;59888;55.814;37.132;2023-04-26T14:06:30;33.18;15.23
71396;DHT22;59888;55.814;37.132;2023-04-26T14:08:59;32.45;17.30
71396;DHT22;59888;55.814;37.132;2023-04-26T14:11:25;31.86;17.49
71396;DHT22;59888;55.814;37.132;2023-04-26T14:13:51;31.45;18.98
71396;DHT22;59888;55.814;37.132;2023-04-26T14:16:24;31.22;17.51
71396;DHT22;59888;55.814;37.132;2023-04-26T14:18:50;30.89;16.66
71396;DHT22;59888;55.814;37.132;2023-04-26T14:21:19;30.46;19.28
71396;DHT22;59888;55.814;37.132;2023-04-26T14:23:45;30.10;17.69
71396;DHT22;59888;55.814;37.132;2023-04-26T14:26:11;29.75;19.69
71396;DHT22;59888;55.814;37.132;2023-04-26T14:28:38;28.83;19.71
71396;DHT22;59888;55.814;37.132;2023-04-26T14:31:04;27.74;19.41
71396;DHT22;59888;55.814;37.132;2023-04-26T14:33:30;26.98;21.55
71396;DHT22;59888;55.814;37.132;2023-04-26T14:35:56;26.21;22.23
71396;DHT22;59888;55.814;37.132;2023-04-26T14:38:23;25.63;23.21
71396;DHT22;59888;55.814;37.132;2023-04-26T14:40:49;25.05;23.39
71396;DHT22;59888;55.814;37.132;2023-04-26T14:43:15;24.74;24.65
71396;DHT22;59888;55.814;37.132;2023-04-26T14:45:42;24.25;24.56
71396;DHT22;59888;55.814;37.132;2023-04-26T14:48:08;23.96;25.20
71396;DHT22;59888;55.814;37.132;2023-04-26T14:50:34;23.56;25.43
71396;DHT22;59888;55.814;37.132;2023-04-26T14:53:00;23.26;26.10
71396;DHT22;59888;55.814;37.132;2023-04-26T14:55:27;22.88;26.36
71396;DHT22;59888;55.814;37.132;2023-04-26T14:57:53;22.55;27.03
71396;DHT22;59888;55.814;37.132;2023-04-26T15:00:19;22.20;27.49
71396;DHT22;59888;55.814;37.132;2023-04-26T15:02:45;21.92;27.97
71396;DHT22;59888;55.814;37.132;2023-04-26T15:05:11;21.62;28.36
71396;DHT22;59888;55.814;37.132;2023-04-26T15:07:38;21.25;29.02
71396;DHT22;59888;55.814;37.132;2023-04-26T15:10:05;21.01;29.90
71396;DHT22;59888;55.814;37.132;2023-04-26T15:12:35;20.90;29.77
71396;DHT22;59888;55.814;37.132;2023-04-26T15:15:02;20.79;29.81
71396;DHT22;59888;55.814;37.132;2023-04-26T15:17:31;20.77;30.07
71396;DHT22;59888;55.814;37.132;2023-04-26T15:19:59;20.93;30.24
71396;DHT22;59888;55.814;37.132;2023-04-26T15:22:26;21.40;29.96
71396;DHT22;59888;55.814;37.132;2023-04-26T15:24:52;21.46;29.72
71396;DHT22;59888;55.814;37.132;2023-04-26T15:27:19;21.57;29.74
71396;DHT22;59888;55.814;37.132;2023-04-26T15:29:45;21.67;29.69
71396;DHT22;59888;55.814;37.132;2023-04-26T15:32:11;21.72;29.66
71396;DHT22;59888;55.814;37.132;2023-04-26T15:34:41;21.84;29.64
71396;DHT22;59888;55.814;37.132;2023-04-26T15:37:10;21.82;29.29
71396;DHT22;59888;55.814;37.132;2023-04-26T15:39:37;21.58;29.19
71396;DHT22;59888;55.814;37.132;2023-04-26T15:42:04;21.24;29.47
71396;DHT22;59888;55.814;37.132;2023-04-26T15:44:31;20.94;29.96